createdAt,value
2019-05-01T00:01:05.717Z,7.50
2019-05-01T00:03:53.858Z,7.50
2019-05-01T00:06:28.893Z,7.40
2019-05-01T00:08:59.218Z,7.40
2019-05-01T00:11:29.527Z,7.40
2019-05-01T00:13:59.689Z,7.40
2019-05-01T00:16:30.392Z,7.40
2019-05-01T00:19:00.716Z,7.40
2019-05-01T00:21:31.449Z,7.40
2019-05-01T00:24:01.773Z,7.40
2019-05-01T00:26:32.301Z,7.40
2019-05-01T00:29:02.625Z,7.30
2019-05-01T00:31:32.744Z,7.30
2019-05-01T00:34:03.067Z,7.30
2019-05-01T00:36:33.392Z,7.30
2019-05-01T00:39:03.810Z,7.30
2019-05-01T00:41:34.039Z,7.30
2019-05-01T00:44:04.162Z,7.30
2019-05-01T00:46:34.481Z,7.20
2019-05-01T00:49:04.806Z,7.10
2019-05-01T00:51:35.334Z,7.10
2019-05-01T00:54:05.649Z,7.10
2019-05-01T00:56:46.632Z,7.10
2019-05-01T00:59:27.402Z,7.00
2019-05-01T01:02:11.005Z,7.00
2019-05-01T01:04:41.360Z,7.00
2019-05-01T01:07:11.683Z,7.00
2019-05-01T01:09:42.212Z,7.00
2019-05-01T01:12:12.331Z,7.00
2019-05-01T01:14:42.859Z,7.00
2019-05-01T01:17:13.378Z,6.90
2019-05-01T01:19:43.507Z,6.90
2019-05-01T01:22:13.829Z,6.90
2019-05-01T01:24:44.769Z,7.00
2019-05-01T01:27:15.707Z,7.00
2019-05-01T01:29:46.236Z,7.00
2019-05-01T01:32:16.764Z,7.00
2019-05-01T01:34:47.080Z,6.90
2019-05-01T01:37:17.298Z,6.90
2019-05-01T01:39:47.940Z,6.80
2019-05-01T01:42:18.264Z,6.80
2019-05-01T01:44:50.868Z,6.80
2019-05-01T01:47:21.164Z,6.70
2019-05-01T01:49:52.513Z,6.60
2019-05-01T01:52:23.392Z,6.60
2019-05-01T01:54:54.595Z,6.60
2019-05-01T01:57:25.189Z,6.60
2019-05-01T01:59:55.785Z,6.60
2019-05-01T02:02:27.614Z,6.50
2019-05-01T02:05:08.794Z,6.60
2019-05-01T02:07:39.935Z,6.60
2019-05-01T02:10:10.553Z,6.50
2019-05-01T02:12:41.400Z,6.40
2019-05-01T02:15:11.930Z,6.40
2019-05-01T02:17:42.050Z,6.50
2019-05-01T02:20:13.191Z,6.50
2019-05-01T02:22:43.515Z,6.50
2019-05-01T02:25:14.853Z,6.60
2019-05-01T02:28:03.004Z,6.60
2019-05-01T02:30:34.048Z,6.60
2019-05-01T02:33:05.139Z,6.60
2019-05-01T02:35:36.844Z,6.60
2019-05-01T02:38:07.654Z,6.60
2019-05-01T02:40:40.768Z,6.60
2019-05-01T02:43:13.958Z,6.60
2019-05-01T02:45:46.334Z,6.60
2019-05-01T02:48:18.907Z,6.70
2019-05-01T02:50:51.881Z,6.70
2019-05-01T02:53:24.675Z,6.60
2019-05-01T02:56:15.896Z,6.60
2019-05-01T02:58:47.852Z,6.60
2019-05-01T03:01:18.583Z,6.60
2019-05-01T03:03:50.536Z,6.70
2019-05-01T03:06:22.481Z,6.70
2019-05-01T03:08:54.675Z,6.70
2019-05-01T03:11:25.000Z,6.70
2019-05-01T03:13:58.188Z,6.70
2019-05-01T03:16:29.016Z,6.80
2019-05-01T03:19:04.981Z,6.70
2019-05-01T03:21:39.405Z,6.80
2019-05-01T03:24:14.435Z,6.80
2019-05-01T03:26:45.260Z,6.80
2019-05-01T03:29:15.901Z,6.80
2019-05-01T03:32:12.985Z,6.80
2019-05-01T03:34:18.393Z,6.80
2019-05-01T03:36:49.329Z,6.80
2019-05-01T03:39:20.062Z,6.80
2019-05-01T03:41:50.388Z,6.80
2019-05-01T03:44:21.123Z,6.90
2019-05-01T03:46:51.445Z,7.00
2019-05-01T03:49:22.588Z,6.90
2019-05-01T03:51:53.115Z,6.90
2019-05-01T03:54:24.056Z,7.00
2019-05-01T03:56:54.994Z,7.00
2019-05-01T03:59:25.328Z,7.00
2019-05-01T04:01:58.491Z,7.10
2019-05-01T04:04:30.470Z,7.10
2019-05-01T04:07:01.414Z,7.10
2019-05-01T04:09:32.140Z,7.10
2019-05-01T04:12:03.079Z,7.10
2019-05-01T04:14:34.224Z,7.10
2019-05-01T04:17:12.535Z,7.10
2019-05-01T04:19:43.394Z,7.10
2019-05-01T04:22:14.691Z,7.20
2019-05-01T04:24:45.757Z,7.20
2019-05-01T04:27:25.297Z,7.20
2019-05-01T04:30:03.403Z,7.30
2019-05-01T04:32:51.159Z,7.40
2019-05-01T04:35:24.328Z,7.50
2019-05-01T04:37:55.197Z,7.50
2019-05-01T04:40:26.203Z,7.60
2019-05-01T04:42:56.936Z,7.60
2019-05-01T04:45:28.479Z,7.70
2019-05-01T04:47:59.647Z,7.80
2019-05-01T04:50:30.572Z,7.90
2019-05-01T04:53:00.687Z,8.00
2019-05-01T04:55:32.435Z,8.10
2019-05-01T04:58:03.383Z,8.20
2019-05-01T05:00:34.422Z,8.20
2019-05-01T05:03:16.531Z,8.30
2019-05-01T05:05:48.282Z,8.50
2019-05-01T05:08:18.604Z,8.50
2019-05-01T05:10:50.472Z,8.50
2019-05-01T05:13:22.733Z,8.70
2019-05-01T05:16:11.899Z,8.70
2019-05-01T05:18:42.226Z,8.80
2019-05-01T05:21:13.775Z,8.90
2019-05-01T05:23:44.508Z,9.10
2019-05-01T05:26:16.066Z,9.10
2019-05-01T05:28:47.825Z,9.20
2019-05-01T05:31:21.610Z,9.30
2019-05-01T05:33:53.996Z,9.40
2019-05-01T05:36:26.270Z,9.50
2019-05-01T05:39:00.365Z,9.70
2019-05-01T05:41:32.136Z,9.80
2019-05-01T05:44:03.073Z,9.90
2019-05-01T05:46:34.219Z,10.00
2019-05-01T05:49:04.746Z,10.10
2019-05-01T05:51:49.411Z,10.20
2019-05-01T05:54:29.945Z,10.30
2019-05-01T05:57:19.343Z,10.40
2019-05-01T06:00:08.305Z,10.40
2019-05-01T06:02:59.310Z,10.60
2019-05-01T06:05:42.744Z,10.70
2019-05-01T06:08:26.170Z,10.80
2019-05-01T06:11:01.505Z,10.90
2019-05-01T06:13:46.482Z,11.00
2019-05-01T06:16:19.678Z,11.20
2019-05-01T06:18:57.775Z,11.20
2019-05-01T06:21:35.953Z,11.30
2019-05-01T06:24:11.735Z,11.30
2019-05-01T06:26:42.263Z,11.20
2019-05-01T06:29:12.790Z,11.50
2019-05-01T06:31:42.911Z,11.50
2019-05-01T06:34:13.439Z,11.80
2019-05-01T06:36:48.948Z,11.80
2019-05-01T06:39:16.750Z,12.00
2019-05-01T06:41:47.501Z,12.20
2019-05-01T06:44:43.771Z,12.20
2019-05-01T06:47:18.851Z,12.30
2019-05-01T06:49:55.114Z,12.40
2019-05-01T06:52:29.258Z,12.60
2019-05-01T06:55:00.275Z,12.90
2019-05-01T06:57:30.978Z,13.20
2019-05-01T07:00:03.288Z,13.90
2019-05-01T07:02:35.344Z,14.50
2019-05-01T07:05:09.027Z,14.80
2019-05-01T07:07:43.214Z,15.00
2019-05-01T07:10:14.497Z,14.70
2019-05-01T07:12:45.026Z,14.80
2019-05-01T07:15:15.968Z,14.90
2019-05-01T07:17:47.856Z,14.60
2019-05-01T07:20:25.476Z,14.60
2019-05-01T07:22:56.355Z,14.90
2019-05-01T07:25:26.884Z,15.20
2019-05-01T07:27:58.571Z,15.60
2019-05-01T07:30:30.336Z,16.40
2019-05-01T07:33:00.562Z,17.10
2019-05-01T07:35:33.068Z,17.80
2019-05-01T07:38:03.450Z,18.50
2019-05-01T07:40:33.452Z,19.40
2019-05-01T07:43:07.965Z,19.60
2019-05-01T07:45:43.519Z,18.60
2019-05-01T07:48:15.613Z,18.10
2019-05-01T07:50:45.795Z,17.80
2019-05-01T07:53:15.610Z,17.70
2019-05-01T07:55:48.652Z,17.30
2019-05-01T07:58:18.235Z,17.30
2019-05-01T08:01:00.221Z,17.70
2019-05-01T08:03:30.111Z,18.50
2019-05-01T08:06:00.119Z,20.00
2019-05-01T08:08:30.016Z,20.40
2019-05-01T08:11:04.868Z,21.80
2019-05-01T08:13:34.938Z,22.20
2019-05-01T08:16:07.234Z,23.90
2019-05-01T08:18:38.956Z,23.30
2019-05-01T08:21:27.552Z,23.10
2019-05-01T08:23:57.602Z,22.80
2019-05-01T08:26:29.314Z,24.20
2019-05-01T08:29:12.713Z,23.60
2019-05-01T08:32:03.431Z,24.40
2019-05-01T08:34:35.034Z,23.80
2019-05-01T08:37:06.542Z,24.10
2019-05-01T08:39:39.682Z,24.90
2019-05-01T08:42:08.191Z,25.10
2019-05-01T08:44:45.529Z,25.20
2019-05-01T08:47:20.714Z,25.80
2019-05-01T08:49:52.951Z,26.50
2019-05-01T08:52:22.945Z,25.10
2019-05-01T08:54:54.844Z,25.10
2019-05-01T08:57:24.395Z,24.70
2019-05-01T08:59:55.706Z,25.40
2019-05-01T09:02:26.902Z,25.90
2019-05-01T09:05:02.509Z,26.50
2019-05-01T09:07:29.939Z,26.20
2019-05-01T09:09:59.861Z,25.70
2019-05-01T09:12:29.844Z,25.30
2019-05-01T09:14:59.827Z,26.00
2019-05-01T09:17:29.827Z,25.50
2019-05-01T09:19:59.885Z,26.50
2019-05-01T09:22:30.186Z,26.50
2019-05-01T09:25:01.769Z,26.80
2019-05-01T09:27:36.049Z,26.80
2019-05-01T09:30:14.504Z,27.10
2019-05-01T09:32:45.953Z,26.60
2019-05-01T09:35:16.414Z,26.90
2019-05-01T09:37:47.201Z,26.40
2019-05-01T09:40:17.062Z,25.90
2019-05-01T09:42:47.261Z,25.90
2019-05-01T09:45:17.731Z,25.90
2019-05-01T09:47:47.688Z,25.20
2019-05-01T09:50:17.642Z,24.20
2019-05-01T09:53:04.365Z,23.80
2019-05-01T09:55:38.942Z,22.90
2019-05-01T09:58:08.899Z,21.70
2019-05-01T10:00:38.972Z,21.20
2019-05-01T10:03:13.198Z,21.10
2019-05-01T10:05:42.896Z,21.50
2019-05-01T10:08:12.973Z,21.80
2019-05-01T10:10:42.865Z,21.50
2019-05-01T10:13:12.787Z,21.50
2019-05-01T10:15:43.165Z,21.80
2019-05-01T10:18:13.034Z,21.30
2019-05-01T10:20:42.969Z,21.00
2019-05-01T10:23:14.653Z,20.80
2019-05-01T10:25:47.937Z,20.70
2019-05-01T10:28:33.994Z,20.60
2019-05-01T10:31:12.034Z,20.00
2019-05-01T10:33:44.162Z,20.00
2019-05-01T10:36:18.730Z,20.70
2019-05-01T10:38:47.328Z,20.80
2019-05-01T10:41:17.225Z,20.70
2019-05-01T10:43:47.078Z,20.70
2019-05-01T10:46:17.359Z,21.00
2019-05-01T10:48:48.092Z,21.20
2019-05-01T10:51:18.220Z,21.40
2019-05-01T10:53:48.740Z,21.30
2019-05-01T10:56:19.066Z,21.50
2019-05-01T10:58:49.387Z,21.90
2019-05-01T11:01:26.879Z,22.10
2019-05-01T11:03:57.000Z,22.20
2019-05-01T11:06:27.528Z,22.30
2019-05-01T11:08:57.851Z,22.70
2019-05-01T11:11:28.175Z,22.90
2019-05-01T11:13:58.703Z,22.50
2019-05-01T11:16:29.028Z,22.50
2019-05-01T11:18:59.555Z,22.20
2019-05-01T11:21:30.084Z,21.80
2019-05-01T11:24:00.407Z,21.10
2019-05-01T11:26:31.141Z,20.60
2019-05-01T11:29:01.259Z,20.40
2019-05-01T11:31:35.871Z,20.10
2019-05-01T11:34:13.874Z,20.10
2019-05-01T11:36:49.028Z,20.20
2019-05-01T11:39:29.883Z,20.30
2019-05-01T11:42:04.827Z,20.20
2019-05-01T11:44:34.826Z,19.80
2019-05-01T11:47:05.678Z,19.60
2019-05-01T11:49:36.618Z,19.40
2019-05-01T11:52:06.737Z,19.50
2019-05-01T11:54:37.060Z,19.40
2019-05-01T11:57:07.384Z,19.40
2019-05-01T11:59:37.708Z,19.30
2019-05-01T12:02:08.236Z,19.10
2019-05-01T12:04:38.768Z,19.00
2019-05-01T12:07:09.908Z,18.70
2019-05-01T12:09:40.641Z,18.50
2019-05-01T12:12:12.604Z,18.40
2019-05-01T12:14:42.722Z,18.40
2019-05-01T12:17:14.638Z,18.40
2019-05-01T12:19:45.418Z,18.50
2019-05-01T12:22:15.733Z,18.30
2019-05-01T12:24:46.065Z,18.50
2019-05-01T12:27:16.186Z,18.70
2019-05-01T12:29:46.507Z,18.90
2019-05-01T12:32:17.241Z,19.00
2019-05-01T12:34:47.566Z,18.90
2019-05-01T12:37:19.313Z,18.70
2019-05-01T12:39:50.260Z,18.40
2019-05-01T12:42:22.417Z,18.30
2019-05-01T12:44:52.751Z,18.40
2019-05-01T12:47:24.508Z,18.50
2019-05-01T12:49:56.266Z,18.60
2019-05-01T12:52:37.649Z,18.80
2019-05-01T12:55:16.140Z,18.90
2019-05-01T12:57:46.899Z,19.00
2019-05-01T13:00:19.679Z,19.00
2019-05-01T13:02:50.207Z,19.00
2019-05-01T13:05:20.941Z,19.00
2019-05-01T13:07:52.490Z,19.10
2019-05-01T13:10:23.228Z,19.00
2019-05-01T13:12:53.551Z,18.90
2019-05-01T13:15:23.875Z,18.80
2019-05-01T13:17:53.993Z,18.60
2019-05-01T13:20:24.321Z,18.40
2019-05-01T13:22:54.641Z,18.30
2019-05-01T13:25:25.375Z,18.40
2019-05-01T13:28:13.517Z,18.10
2019-05-01T13:31:00.176Z,18.20
2019-05-01T13:33:30.755Z,18.30
2019-05-01T13:36:01.281Z,18.40
2019-05-01T13:38:31.400Z,18.40
2019-05-01T13:41:01.725Z,18.60
2019-05-01T13:43:32.048Z,18.60
2019-05-01T13:46:02.371Z,18.80
2019-05-01T13:48:32.702Z,18.80
2019-05-01T13:51:03.023Z,18.70
2019-05-01T13:53:33.341Z,18.50
2019-05-01T13:56:04.897Z,18.60
2019-05-01T13:58:35.219Z,18.80
2019-05-01T14:01:05.748Z,18.90
2019-05-01T14:03:36.276Z,18.80
2019-05-01T14:06:06.599Z,18.60
2019-05-01T14:08:36.922Z,18.30
2019-05-01T14:11:07.246Z,18.00
2019-05-01T14:13:37.570Z,17.90
2019-05-01T14:16:07.893Z,17.90
2019-05-01T14:18:38.012Z,17.80
2019-05-01T14:21:26.154Z,17.80
2019-05-01T14:23:58.118Z,17.80
2019-05-01T14:26:29.070Z,17.70
2019-05-01T14:29:01.633Z,17.60
2019-05-01T14:31:31.954Z,17.50
2019-05-01T14:34:02.482Z,17.50
2019-05-01T14:36:32.811Z,17.50
2019-05-01T14:39:04.769Z,17.50
2019-05-01T14:41:35.299Z,17.40
2019-05-01T14:44:06.141Z,17.30
2019-05-01T14:46:36.561Z,17.20
2019-05-01T14:49:06.885Z,17.10
2019-05-01T14:51:37.411Z,17.10
2019-05-01T14:54:08.144Z,17.10
2019-05-01T14:56:38.263Z,17.10
2019-05-01T14:59:08.792Z,17.10
2019-05-01T15:01:39.116Z,17.20
2019-05-01T15:04:09.849Z,17.20
2019-05-01T15:06:40.175Z,17.30
2019-05-01T15:09:10.906Z,17.30
2019-05-01T15:11:42.345Z,17.40
2019-05-01T15:14:26.504Z,17.30
2019-05-01T15:16:58.262Z,17.10
2019-05-01T15:19:33.093Z,17.10
2019-05-01T15:22:03.210Z,17.00
2019-05-01T15:24:33.738Z,16.80
2019-05-01T15:27:03.888Z,16.40
2019-05-01T15:29:34.184Z,16.00
2019-05-01T15:32:04.710Z,15.60
2019-05-01T15:34:36.057Z,15.30
2019-05-01T15:37:06.587Z,15.00
2019-05-01T15:39:38.441Z,14.80
2019-05-01T15:42:10.511Z,14.50
2019-05-01T15:44:42.511Z,14.30
2019-05-01T15:47:12.796Z,14.10
2019-05-01T15:49:43.113Z,13.90
2019-05-01T15:52:13.327Z,13.80
2019-05-01T15:54:43.562Z,13.70
2019-05-01T15:57:13.887Z,13.70
2019-05-01T15:59:44.209Z,13.60
2019-05-01T16:02:14.329Z,13.60
2019-05-01T16:04:44.441Z,13.50
2019-05-01T16:07:14.776Z,13.50
2019-05-01T16:09:45.100Z,13.50
2019-05-01T16:12:22.385Z,13.50
2019-05-01T16:14:53.320Z,13.60
2019-05-01T16:17:23.849Z,13.60
2019-05-01T16:19:54.172Z,13.60
2019-05-01T16:22:24.909Z,13.60
2019-05-01T16:24:55.236Z,13.50
2019-05-01T16:27:25.554Z,13.40
2019-05-01T16:29:55.877Z,13.40
2019-05-01T16:32:26.203Z,13.10
2019-05-01T16:34:56.524Z,12.90
2019-05-01T16:37:27.261Z,12.80
2019-05-01T16:39:59.017Z,12.60
2019-05-01T16:42:30.621Z,12.50
2019-05-01T16:45:00.687Z,12.40
2019-05-01T16:47:31.406Z,12.30
2019-05-01T16:50:01.379Z,12.20
2019-05-01T16:52:33.137Z,12.20
2019-05-01T16:55:04.568Z,12.20
2019-05-01T16:57:34.652Z,12.10
2019-05-01T17:00:07.847Z,12.10
2019-05-01T17:02:54.495Z,12.10
2019-05-01T17:05:29.056Z,12.00
2019-05-01T17:08:16.935Z,12.00
2019-05-01T17:10:48.491Z,11.90
2019-05-01T17:13:18.535Z,11.90
2019-05-01T17:15:50.125Z,11.90
2019-05-01T17:18:20.207Z,11.90
2019-05-01T17:20:50.279Z,11.90
2019-05-01T17:23:20.351Z,12.00
2019-05-01T17:25:50.951Z,12.00
2019-05-01T17:28:21.043Z,12.10
2019-05-01T17:30:52.717Z,12.10
2019-05-01T17:33:25.390Z,12.10
2019-05-01T17:35:55.470Z,12.10
2019-05-01T17:38:25.492Z,12.10
2019-05-01T17:40:55.471Z,12.10
2019-05-01T17:43:25.429Z,12.10
2019-05-01T17:45:55.433Z,12.10
2019-05-01T17:48:37.109Z,12.00
2019-05-01T17:51:07.182Z,12.00
2019-05-01T17:53:37.075Z,12.00
2019-05-01T17:56:10.201Z,12.00
2019-05-01T17:58:38.831Z,12.00
2019-05-01T18:01:27.720Z,12.00
2019-05-01T18:04:10.537Z,12.00
2019-05-01T18:06:46.454Z,11.90
2019-05-01T18:09:15.609Z,12.00
2019-05-01T18:11:47.216Z,11.90
2019-05-01T18:14:17.325Z,11.90
2019-05-01T18:16:47.445Z,11.80
2019-05-01T18:19:17.600Z,11.80
2019-05-01T18:21:51.757Z,11.80
2019-05-01T18:24:31.454Z,11.70
2019-05-01T18:27:20.364Z,11.80
2019-05-01T18:29:52.167Z,11.80
2019-05-01T18:32:41.727Z,11.80
2019-05-01T18:35:14.185Z,11.90
2019-05-01T18:37:44.582Z,11.90
2019-05-01T18:40:19.324Z,12.00
2019-05-01T18:42:49.150Z,11.90
2019-05-01T18:45:40.289Z,11.90
2019-05-01T18:48:10.302Z,12.00
2019-05-01T18:50:40.282Z,11.90
2019-05-01T18:53:11.518Z,12.00
2019-05-01T18:55:41.982Z,12.00
2019-05-01T18:58:12.226Z,12.00
2019-05-01T19:00:42.627Z,12.00
2019-05-01T19:03:12.626Z,12.00
2019-05-01T19:05:43.145Z,12.00
2019-05-01T19:08:14.540Z,12.00
2019-05-01T19:10:44.527Z,12.00
2019-05-01T19:13:14.715Z,12.00
2019-05-01T19:15:44.939Z,12.00
2019-05-01T19:18:15.422Z,12.00
2019-05-01T19:20:58.623Z,12.00
2019-05-01T19:23:17.505Z,12.00
2019-05-01T19:25:48.031Z,12.00
2019-05-01T19:28:19.001Z,12.00
2019-05-01T19:30:49.501Z,12.00
2019-05-01T19:33:19.923Z,11.90
2019-05-01T19:35:50.617Z,11.90
2019-05-01T19:38:21.288Z,11.90
2019-05-01T19:40:52.064Z,11.90
2019-05-01T19:43:22.336Z,11.90
2019-05-01T19:45:52.670Z,11.80
2019-05-01T19:48:23.045Z,11.80
2019-05-01T19:50:53.931Z,11.80
2019-05-01T19:53:24.271Z,11.80
2019-05-01T19:55:54.608Z,11.90
2019-05-01T19:58:24.903Z,11.90
2019-05-01T20:00:58.297Z,11.90
2019-05-01T20:03:30.814Z,11.90
2019-05-01T20:06:05.463Z,11.90
2019-05-01T20:08:33.258Z,11.90
2019-05-01T20:11:03.484Z,11.90
2019-05-01T20:13:33.830Z,11.80
2019-05-01T20:16:06.180Z,11.80
2019-05-01T20:18:36.504Z,11.70
2019-05-01T20:21:06.708Z,11.70
2019-05-01T20:23:37.054Z,11.70
2019-05-01T20:26:07.769Z,11.70
2019-05-01T20:28:38.002Z,11.80
2019-05-01T20:31:08.736Z,11.70
2019-05-01T20:33:43.925Z,11.70
2019-05-01T20:36:11.227Z,11.60
2019-05-01T20:38:41.145Z,11.60
2019-05-01T20:41:15.891Z,11.60
2019-05-01T20:43:45.346Z,11.70
2019-05-01T20:46:16.209Z,11.70
2019-05-01T20:48:46.338Z,11.70
2019-05-01T20:51:20.038Z,11.60
2019-05-01T20:53:49.237Z,11.50
2019-05-01T20:56:24.322Z,11.40
2019-05-01T20:58:57.632Z,11.40
2019-05-01T21:01:28.276Z,11.30
2019-05-01T21:04:17.966Z,11.30
2019-05-01T21:07:06.728Z,11.30
2019-05-01T21:09:57.746Z,11.30
2019-05-01T21:12:25.393Z,11.30
2019-05-01T21:14:55.926Z,11.30
2019-05-01T21:17:27.681Z,11.30
2019-05-01T21:19:58.814Z,11.20
2019-05-01T21:22:29.549Z,11.30
2019-05-01T21:24:59.673Z,11.30
2019-05-01T21:27:30.202Z,11.40
2019-05-01T21:30:00.936Z,11.30
2019-05-01T21:32:33.958Z,11.30
2019-05-01T21:35:04.920Z,11.30
2019-05-01T21:37:35.596Z,11.30
2019-05-01T21:40:07.557Z,11.20
2019-05-01T21:42:40.064Z,11.20
2019-05-01T21:45:10.458Z,11.20
2019-05-01T21:47:42.550Z,11.20
2019-05-01T21:50:13.282Z,11.20
2019-05-01T21:52:43.890Z,11.30
2019-05-01T21:55:14.209Z,11.30
2019-05-01T21:57:49.224Z,11.30
2019-05-01T22:00:20.027Z,11.20
2019-05-01T22:02:49.373Z,11.20
2019-05-01T22:05:20.215Z,11.20
2019-05-01T22:07:50.335Z,11.30
2019-05-01T22:10:21.548Z,11.20
2019-05-01T22:12:52.823Z,11.20
2019-05-01T22:15:27.338Z,11.20
2019-05-01T22:18:10.878Z,11.20
2019-05-01T22:20:45.913Z,11.20
2019-05-01T22:23:21.902Z,11.20
2019-05-01T22:25:51.688Z,11.20
2019-05-01T22:28:32.450Z,11.20
2019-05-01T22:31:21.730Z,11.20
2019-05-01T22:33:53.372Z,11.20
2019-05-01T22:36:23.492Z,11.20
2019-05-01T22:38:53.815Z,11.20
2019-05-01T22:41:23.923Z,11.30
2019-05-01T22:43:54.668Z,11.20
2019-05-01T22:46:26.425Z,11.20
2019-05-01T22:48:56.749Z,11.20
2019-05-01T22:51:27.073Z,11.20
2019-05-01T22:53:57.806Z,11.20
2019-05-01T22:56:28.538Z,11.20
2019-05-01T22:58:58.862Z,11.20
2019-05-01T23:01:29.391Z,11.20
2019-05-01T23:04:01.354Z,11.10
2019-05-01T23:06:32.495Z,11.10
2019-05-01T23:09:03.607Z,11.10
2019-05-01T23:11:35.604Z,11.10
2019-05-01T23:14:06.237Z,11.10
2019-05-01T23:16:38.297Z,11.10
2019-05-01T23:19:08.620Z,11.00
2019-05-01T23:21:39.151Z,11.00
2019-05-01T23:24:09.768Z,11.00
2019-05-01T23:26:40.001Z,11.00
2019-05-01T23:29:10.624Z,11.00
2019-05-01T23:31:40.641Z,11.00
2019-05-01T23:34:11.180Z,10.90
2019-05-01T23:36:41.500Z,10.90
2019-05-01T23:39:13.670Z,10.90
2019-05-01T23:41:46.890Z,10.90
2019-05-01T23:44:15.544Z,11.00
2019-05-01T23:46:45.868Z,11.00
2019-05-01T23:49:16.399Z,10.90
2019-05-01T23:51:47.129Z,10.90
2019-05-01T23:54:17.455Z,11.00
2019-05-01T23:56:47.788Z,11.00
2019-05-01T23:59:18.102Z,11.00
